Terminal Aerodrome Forecast
Issued by NWS Sioux Falls, SD

Home | Current Version | Previous Version | Text Only | Print | Product List | Glossary On
Versions: 1 2 3 4 5 6 7 8 9 10 11 12 13 14 15 16 17 18 19 20
000
FTUS43 KFSD 261943 AAB
TAFSUX
TAF AMD
KSUX 261943Z 2620/2718 32012KT P6SM SCT015
     FM262100 33009KT P6SM SCT045
     FM270400 VRB03KT P6SM SKC
      TEMPO 2710/2712 3SM BR SCT008=

USA.gov is the U.S. government's official web portal to all federal, state and local government web resources and services.